Time;durP1;ratioP1;P1;durP2;ratioP2;P2;SDS_P1;SDS_P2;PMS_P1;PMS_P2;Temp;Humidity;BMP_temperature;BMP_pressure;BME280_temperature;BME280_humidity;BME280_pressure;Samples;Min_cycle;Max_cycle;Signal;HPM_P1;HPM_P2
2023/01/30 00:01:15;;;;;;;42.28;24.00;;;;;;;3.95;100.00;101577.19;5051047;28;20045;-52
2023/01/30 00:03:45;;;;;;;44.28;25.25;;;;;;;3.98;100.00;101574.50;5052505;28;20076;-52
2023/01/30 00:06:14;;;;;;;49.00;26.02;;;;;;;3.97;100.00;101575.41;5052484;28;20119;-53
2023/01/30 00:08:42;;;;;;;46.67;25.05;;;;;;;3.97;100.00;101562.41;5052377;28;20052;-50
2023/01/30 00:11:13;;;;;;;45.25;24.95;;;;;;;3.97;100.00;101554.59;5052376;28;20128;-51
2023/01/30 00:13:42;;;;;;;44.95;25.35;;;;;;;3.98;100.00;101551.94;5052472;28;20045;-52
2023/01/30 00:16:11;;;;;;;44.80;26.20;;;;;;;4.00;100.00;101563.16;5052381;28;20542;-52
2023/01/30 00:18:40;;;;;;;46.15;24.92;;;;;;;4.01;100.00;101561.44;5051902;28;20045;-53
2023/01/30 00:21:12;;;;;;;41.50;23.20;;;;;;;4.04;100.00;101556.13;5046370;28;20057;-52
2023/01/30 00:23:40;;;;;;;45.95;25.40;;;;;;;4.07;100.00;101550.84;5049768;28;20131;-50
2023/01/30 00:26:09;;;;;;;47.50;25.25;;;;;;;4.09;100.00;101546.47;5052388;28;20045;-50
2023/01/30 00:28:38;;;;;;;45.08;25.65;;;;;;;4.13;100.00;101548.09;5052000;28;20056;-51
2023/01/30 00:31:06;;;;;;;44.58;24.88;;;;;;;4.11;100.00;101534.25;5052143;28;20044;-49
2023/01/30 00:33:36;;;;;;;44.88;26.95;;;;;;;4.12;100.00;101525.53;5052277;28;20107;-52
2023/01/30 00:36:05;;;;;;;47.95;26.73;;;;;;;4.13;100.00;101535.06;5052058;28;20049;-52
2023/01/30 00:38:35;;;;;;;45.17;25.02;;;;;;;4.19;100.00;101519.25;5052109;28;20068;-52
2023/01/30 00:41:04;;;;;;;48.55;26.27;;;;;;;4.17;100.00;101505.44;5052023;28;20103;-50
2023/01/30 00:49:12;;;;;;;48.63;26.70;;;;;;;4.18;100.00;101508.91;5047442;28;20063;-53
2023/01/30 00:51:40;;;;;;;46.05;25.05;;;;;;;4.20;100.00;101497.53;5050796;28;20547;-52
2023/01/30 00:54:11;;;;;;;46.90;26.85;;;;;;;4.26;100.00;101493.06;5051646;28;20488;-52
2023/01/30 00:56:39;;;;;;;53.92;28.05;;;;;;;4.25;100.00;101487.00;5050861;28;20049;-51
2023/01/30 00:59:07;;;;;;;47.40;27.75;;;;;;;4.30;100.00;101479.91;5048518;28;20041;-52
2023/01/30 01:01:36;;;;;;;43.35;25.17;;;;;;;4.38;100.00;101482.28;5049933;28;20115;-52
2023/01/30 01:04:05;;;;;;;46.70;25.95;;;;;;;4.32;100.00;101470.31;5052131;28;20481;-52
2023/01/30 01:06:33;;;;;;;45.65;25.17;;;;;;;4.37;100.00;101463.19;5048326;28;20111;-54
2023/01/30 01:09:01;;;;;;;48.30;26.10;;;;;;;4.37;100.00;101451.94;5048343;28;20041;-52
2023/01/30 01:11:33;;;;;;;48.75;27.27;;;;;;;4.40;100.00;101449.22;5051892;28;20124;-52
2023/01/30 01:14:02;;;;;;;47.47;26.45;;;;;;;4.44;100.00;101445.63;5051670;28;20051;-54
2023/01/30 01:16:31;;;;;;;42.80;26.30;;;;;;;4.47;100.00;101453.38;5051866;28;20044;-53
2023/01/30 01:19:00;;;;;;;47.17;26.50;;;;;;;4.49;100.00;101458.53;5051643;28;20053;-52
2023/01/30 01:21:28;;;;;;;53.05;28.63;;;;;;;4.54;100.00;101467.03;5050388;28;20045;-52
2023/01/30 01:24:00;;;;;;;49.58;26.23;;;;;;;4.54;100.00;101460.09;5047835;28;20120;-51
2023/01/30 01:26:28;;;;;;;43.05;26.45;;;;;;;4.57;100.00;101456.56;5049433;28;20077;-49
2023/01/30 01:29:00;;;;;;;44.78;26.83;;;;;;;4.56;100.00;101442.66;5051626;28;20045;-51
2023/01/30 01:31:28;;;;;;;51.80;28.40;;;;;;;4.53;100.00;101434.94;5051205;28;20049;-50
2023/01/30 01:33:56;;;;;;;45.47;27.30;;;;;;;4.54;100.00;101436.66;5048507;28;20081;-52
2023/01/30 01:36:25;;;;;;;47.00;27.20;;;;;;;4.55;100.00;101432.28;5052033;28;20126;-52
2023/01/30 01:39:13;;;;;;;52.30;27.55;;;;;;;4.59;100.00;101433.91;5055223;28;20093;-51
2023/01/30 01:41:40;;;;;;;45.17;27.58;;;;;;;4.56;100.00;101424.41;5052104;28;20421;-50
2023/01/30 01:44:11;;;;;;;46.03;27.40;;;;;;;4.63;100.00;101432.06;5052170;28;20053;-50
2023/01/30 01:46:44;;;;;;;45.25;26.58;;;;;;;4.64;100.00;101423.34;5055238;28;20049;-53
2023/01/30 01:49:17;;;;;;;45.13;27.23;;;;;;;4.60;100.00;101413.94;5055101;28;20045;-54
2023/01/30 01:51:51;;;;;;;42.95;27.48;;;;;;;4.60;100.00;101406.13;5055052;28;20484;-52
2023/01/30 01:54:25;;;;;;;45.63;27.63;;;;;;;4.61;100.00;101406.06;5055056;28;20037;-52
2023/01/30 01:56:54;;;;;;;49.17;27.30;;;;;;;4.59;100.00;101405.25;5051894;28;20045;-52
2023/01/30 01:59:29;;;;;;;49.88;27.35;;;;;;;4.63;100.00;101404.25;5052427;28;20084;-51
2023/01/30 02:02:03;;;;;;;46.85;27.42;;;;;;;4.63;100.00;101392.97;5054653;28;20057;-52
2023/01/30 02:07:22;;;;;;;46.17;27.15;;;;;;;4.68;100.00;101383.28;5050182;28;20124;-52
2023/01/30 02:09:51;;;;;;;48.67;27.92;;;;;;;4.69;100.00;101382.34;5052088;28;20052;-50
2023/01/30 02:12:19;;;;;;;44.72;27.73;;;;;;;4.69;100.00;101372.78;5055055;28;20131;-50
2023/01/30 02:14:50;;;;;;;47.95;26.08;;;;;;;4.71;100.00;101370.97;5054177;28;20045;-53
2023/01/30 02:17:19;;;;;;;45.47;27.40;;;;;;;4.69;100.00;101382.34;5054203;28;20057;-52
2023/01/30 02:19:51;;;;;;;49.15;27.73;;;;;;;4.70;100.00;101384.06;5054286;28;20037;-51
2023/01/30 02:22:49;;;;;;;45.80;27.13;;;;;;;4.70;100.00;101386.66;5054963;28;20382;-52
2023/01/30 02:25:54;;;;;;;45.45;26.23;;;;;;;4.73;100.00;101378.75;5054605;28;20045;-51
2023/01/30 02:28:40;;;;;;;41.88;25.90;;;;;;;4.72;100.00;101377.06;5054331;28;20396;-52
2023/01/30 02:31:26;;;;;;;42.10;26.30;;;;;;;4.69;100.00;101367.59;5054378;28;20049;-55
2023/01/30 02:34:11;;;;;;;46.58;25.73;;;;;;;4.70;100.00;101374.50;5054244;28;20056;-52
2023/01/30 02:36:50;;;;;;;47.75;24.50;;;;;;;4.75;100.00;101371.75;5049742;28;20511;-53
2023/01/30 02:39:32;;;;;;;44.97;26.08;;;;;;;4.74;100.00;101367.41;5051380;28;20037;-54
2023/01/30 02:42:05;;;;;;;42.03;23.90;;;;;;;4.80;100.00;101367.25;5053935;28;20393;-54
2023/01/30 02:44:45;;;;;;;41.80;24.42;;;;;;;4.76;100.00;101370.84;5053494;28;20045;-53
2023/01/30 02:47:19;;;;;;;44.10;22.92;;;;;;;4.75;100.00;101363.91;5053385;28;20052;-53
2023/01/30 02:49:52;;;;;;;38.28;25.55;;;;;;;4.78;100.00;101360.38;5053796;28;20064;-55
2023/01/30 02:52:21;;;;;;;45.63;22.60;;;;;;;4.80;100.00;101356.81;5054000;28;20435;-54
2023/01/30 02:54:50;;;;;;;43.20;22.65;;;;;;;4.79;100.00;101355.09;5053863;28;20040;-52
2023/01/30 02:57:20;;;;;;;38.28;22.35;;;;;;;4.78;100.00;101335.16;5053911;28;20124;-54
2023/01/30 02:59:52;;;;;;;34.28;20.65;;;;;;;4.80;100.00;101342.91;5053746;28;20448;-54
2023/01/30 03:02:49;;;;;;;42.85;21.52;;;;;;;4.81;100.00;101332.44;5054007;28;20427;-54
2023/01/30 03:05:35;;;;;;;31.58;18.35;;;;;;;4.84;100.00;101340.16;5053673;28;20053;-53
2023/01/30 03:08:13;;;;;;;38.05;19.73;;;;;;;4.88;100.00;101330.47;5053686;28;20049;-52
2023/01/30 03:10:49;;;;;;;29.08;16.70;;;;;;;4.96;100.00;101330.22;5051845;28;20053;-54
2023/01/30 03:13:26;;;;;;;26.85;16.13;;;;;;;5.05;100.00;101330.75;5049523;28;20056;-53
2023/01/30 03:15:59;;;;;;;26.70;15.77;;;;;;;5.05;100.00;101328.16;5053403;28;20056;-51
2023/01/30 03:18:29;;;;;;;26.27;13.93;;;;;;;5.05;100.00;101317.72;5053181;28;20065;-54
2023/01/30 03:21:05;;;;;;;26.35;14.13;;;;;;;5.11;100.00;101326.25;5053392;28;20053;-54
2023/01/30 03:23:33;;;;;;;31.95;15.57;;;;;;;5.09;100.00;101326.31;5049947;28;20052;-52
2023/01/30 03:26:04;;;;;;;29.13;14.73;;;;;;;5.09;100.00;101318.47;5049943;28;20107;-53
2023/01/30 03:28:34;;;;;;;27.08;14.68;;;;;;;5.15;100.00;101323.47;5053160;28;20198;-54
2023/01/30 03:31:02;;;;;;;31.02;15.13;;;;;;;5.17;100.00;101319.06;5053250;28;20068;-53
2023/01/30 03:33:31;;;;;;;25.27;14.60;;;;;;;5.17;100.00;101308.63;5052978;28;20041;-52
2023/01/30 03:35:59;;;;;;;23.50;13.50;;;;;;;5.19;100.00;101309.41;5053004;28;20523;-51
2023/01/30 03:38:28;;;;;;;22.75;14.20;;;;;;;5.22;100.00;101304.13;5049424;28;20545;-54
2023/01/30 03:40:56;;;;;;;27.42;14.18;;;;;;;5.21;100.00;101307.63;5049380;28;20437;-53
2023/01/30 03:43:24;;;;;;;24.58;13.10;;;;;;;5.23;100.00;101312.78;5052362;28;20492;-53
2023/01/30 03:45:52;;;;;;;25.52;12.52;;;;;;;5.22;100.00;101306.72;5052802;28;20102;-53
2023/01/30 03:48:20;;;;;;;20.65;12.15;;;;;;;5.24;100.00;101297.06;5052789;28;20434;-54
2023/01/30 03:50:50;;;;;;;23.77;12.80;;;;;;;5.25;100.00;101300.56;5052601;28;20072;-54
2023/01/30 03:53:18;;;;;;;21.77;12.48;;;;;;;5.29;100.00;101298.66;5052588;28;20060;-55
2023/01/30 03:55:46;;;;;;;20.92;11.77;;;;;;;5.34;100.00;101309.78;5052702;28;20090;-54
2023/01/30 03:58:14;;;;;;;22.35;12.55;;;;;;;5.30;100.00;101308.19;5051694;28;20127;-53
2023/01/30 04:00:42;;;;;;;18.95;11.25;;;;;;;5.32;100.00;101306.41;5052431;28;20044;-54
2023/01/30 04:03:10;;;;;;;21.02;11.25;;;;;;;5.31;100.00;101302.09;5052559;28;20076;-53
2023/01/30 04:05:38;;;;;;;21.02;12.10;;;;;;;5.31;100.00;101310.75;5049096;28;20041;-52
2023/01/30 04:08:09;;;;;;;21.10;11.32;;;;;;;5.35;100.00;101309.72;5048534;28;20041;-53
2023/01/30 04:10:37;;;;;;;20.30;11.00;;;;;;;5.33;100.00;101303.75;5052005;28;20423;-52
2023/01/30 04:13:05;;;;;;;20.17;10.90;;;;;;;5.32;100.00;101304.63;5052130;28;20441;-52
2023/01/30 04:15:33;;;;;;;21.67;11.57;;;;;;;5.36;100.00;101308.84;5051747;28;20049;-50
2023/01/30 04:18:01;;;;;;;19.83;11.10;;;;;;;5.36;100.00;101321.03;5051582;28;20069;-54
2023/01/30 04:20:29;;;;;;;18.90;10.70;;;;;;;5.38;100.00;101308.78;5051345;28;20063;-52
2023/01/30 04:23:00;;;;;;;24.80;11.40;;;;;;;5.38;100.00;101303.56;5048861;28;20558;-53
2023/01/30 04:25:29;;;;;;;20.30;10.70;;;;;;;5.42;100.00;101312.97;5049262;28;20045;-51
2023/01/30 04:27:58;;;;;;;23.60;10.75;;;;;;;5.45;100.00;101314.63;5052643;28;20136;-53
2023/01/30 04:30:26;;;;;;;24.52;11.45;;;;;;;5.47;100.00;101308.44;5052027;28;20068;-54
2023/01/30 04:32:54;;;;;;;20.65;10.57;;;;;;;5.49;100.00;101306.63;5052504;28;20060;-53
2023/01/30 04:35:22;;;;;;;22.35;10.30;;;;;;;5.50;100.00;101307.50;5052005;28;20053;-52
2023/01/30 04:37:50;;;;;;;19.52;10.63;;;;;;;5.50;100.00;101302.28;5052052;28;20553;-53
2023/01/30 04:40:18;;;;;;;21.67;10.07;;;;;;;5.52;100.00;101298.69;5049459;28;20041;-52
2023/01/30 04:42:47;;;;;;;21.30;9.98;;;;;;;5.61;100.00;101289.66;5049339;28;20452;-52
2023/01/30 04:45:16;;;;;;;19.83;10.32;;;;;;;5.56;100.00;101278.53;5051200;28;20099;-52
2023/01/30 04:47:44;;;;;;;23.17;10.35;;;;;;;5.58;100.00;101288.03;5052039;28;20557;-53
2023/01/30 04:50:12;;;;;;;22.25;10.20;;;;;;;5.59;100.00;101297.56;5051895;28;20087;-53
2023/01/30 04:52:40;;;;;;;18.92;9.43;;;;;;;5.67;100.00;101304.25;5051965;28;20049;-51
2023/01/30 04:55:09;;;;;;;19.38;9.07;;;;;;;5.64;100.00;101305.19;5049576;28;20063;-54
2023/01/30 04:57:37;;;;;;;20.25;9.52;;;;;;;5.66;100.00;101313.84;5049028;28;20076;-54
2023/01/30 05:00:08;;;;;;;20.33;8.93;;;;;;;5.65;100.00;101309.53;5051534;28;20099;-52
2023/01/30 05:02:37;;;;;;;16.42;8.80;;;;;;;5.71;100.00;101306.69;5051901;28;20547;-54
2023/01/30 05:05:06;;;;;;;26.25;9.68;;;;;;;5.66;100.00;101315.59;5052135;28;20384;-54
2023/01/30 05:07:34;;;;;;;20.67;8.65;;;;;;;5.69;100.00;101312.88;5051851;28;20049;-54
2023/01/30 05:10:02;;;;;;;20.67;8.95;;;;;;;5.71;100.00;101300.63;5050163;28;20131;-53
2023/01/30 05:12:30;;;;;;;19.05;7.95;;;;;;;5.68;100.00;101303.34;5052678;28;20049;-53
2023/01/30 05:14:58;;;;;;;15.10;7.53;;;;;;;5.69;100.00;101297.22;5056097;28;20377;-54
2023/01/30 05:17:28;;;;;;;17.65;8.18;;;;;;;5.69;100.00;101297.22;5056120;28;20399;-54
2023/01/30 05:19:56;;;;;;;17.00;7.97;;;;;;;5.73;100.00;101296.19;5054408;28;20049;-53
2023/01/30 05:22:25;;;;;;;19.35;7.20;;;;;;;5.74;100.00;101303.13;5051264;28;20395;-53
2023/01/30 05:24:53;;;;;;;14.23;6.68;;;;;;;5.75;100.00;101307.41;5054956;28;20071;-53
2023/01/30 05:27:21;;;;;;;16.50;6.97;;;;;;;5.75;100.00;101308.28;5055557;28;20060;-54
2023/01/30 05:29:49;;;;;;;22.50;7.13;;;;;;;5.75;100.00;101302.19;5053559;28;20049;-53
2023/01/30 05:32:19;;;;;;;19.60;6.63;;;;;;;5.77;100.00;101303.00;5050674;28;20045;-52
2023/01/30 05:34:49;;;;;;;20.23;6.22;;;;;;;5.80;100.00;101300.28;5053622;28;20511;-53
2023/01/30 05:37:18;;;;;;;23.13;6.75;;;;;;;5.82;100.00;101295.84;5055314;28;20072;-52
2023/01/30 05:39:46;;;;;;;17.23;6.00;;;;;;;5.79;100.00;101300.34;5055377;28;20041;-51
2023/01/30 05:42:15;;;;;;;14.07;5.22;;;;;;;5.80;100.00;101315.94;5055298;28;20060;-53
2023/01/30 05:44:43;;;;;;;17.67;5.38;;;;;;;5.85;100.00;101315.75;5055356;28;20056;-50
2023/01/30 05:47:11;;;;;;;16.90;5.75;;;;;;;5.84;100.00;101316.69;5055387;28;20111;-51
2023/01/30 05:49:39;;;;;;;16.80;5.35;;;;;;;5.85;100.00;101321.84;5055134;28;20053;-52
2023/01/30 05:52:09;;;;;;;15.50;4.57;;;;;;;5.87;100.00;101312.19;5050780;28;20048;-50
2023/01/30 05:54:37;;;;;;;15.05;4.20;;;;;;;5.84;100.00;101335.78;5051576;28;20063;-51
2023/01/30 05:57:05;;;;;;;15.15;4.45;;;;;;;5.83;100.00;101328.03;5070563;28;20672;-51
2023/01/30 05:59:33;;;;;;;18.13;3.85;;;;;;;5.81;100.00;101322.88;5055253;28;20497;-54
2023/01/30 06:02:01;;;;;;;20.48;4.78;;;;;;;5.84;100.00;101309.69;5054998;28;20048;-51
2023/01/30 06:04:29;;;;;;;14.98;3.67;;;;;;;5.86;100.00;101315.72;5054733;28;20447;-54
2023/01/30 06:06:57;;;;;;;12.25;3.58;;;;;;;5.89;100.00;101315.59;5054931;28;20055;-51
2023/01/30 06:09:27;;;;;;;11.90;2.60;;;;;;;5.87;100.00;101333.06;5068893;28;20135;-50
2023/01/30 06:11:55;;;;;;;11.80;2.83;;;;;;;5.91;100.00;101318.13;5051413;28;20098;-52
2023/01/30 06:14:23;;;;;;;11.10;2.42;;;;;;;5.86;100.00;101315.72;5053638;28;20049;-52
2023/01/30 06:16:51;;;;;;;10.82;3.03;;;;;;;5.89;100.00;101309.50;5054793;28;20127;-54
2023/01/30 06:19:19;;;;;;;10.43;2.35;;;;;;;5.86;100.00;101328.78;5054681;28;20045;-53
2023/01/30 06:21:47;;;;;;;12.18;2.65;;;;;;;5.79;100.00;101342.09;5052144;28;20128;-49
2023/01/30 06:24:16;;;;;;;17.52;2.95;;;;;;;5.77;100.00;101347.38;5050045;28;20080;-50
2023/01/30 06:26:45;;;;;;;9.68;2.42;;;;;;;5.72;100.00;101362.34;5053111;28;20037;-50
2023/01/30 06:29:14;;;;;;;15.52;2.95;;;;;;;5.72;100.00;101347.53;5054672;28;20045;-49
2023/01/30 06:31:42;;;;;;;10.63;2.78;;;;;;;5.69;100.00;101352.88;5069358;28;20084;-50
2023/01/30 06:34:11;;;;;;;13.40;2.22;;;;;;;5.66;100.00;101355.59;5053362;28;20053;-51
2023/01/30 06:36:40;;;;;;;11.80;2.30;;;;;;;5.66;100.00;101350.38;5050090;28;20048;-50
2023/01/30 06:39:08;;;;;;;11.77;3.28;;;;;;;5.62;100.00;101351.41;5052595;28;20048;-51
2023/01/30 06:41:36;;;;;;;15.45;2.75;;;;;;;5.63;100.00;101358.34;5053967;28;20403;-52
2023/01/30 06:44:05;;;;;;;13.35;2.70;;;;;;;5.56;100.00;101355.09;5053664;28;20056;-62
2023/01/30 06:46:34;;;;;;;14.98;2.63;;;;;;;5.53;100.00;101349.97;5049871;28;20063;-52
2023/01/30 06:49:02;;;;;;;20.33;3.17;;;;;;;5.48;100.00;101354.50;5051275;28;20123;-54
2023/01/30 06:51:31;;;;;;;12.38;2.10;;;;;;;5.43;100.00;101369.47;5053495;28;20049;-53
2023/01/30 06:53:59;;;;;;;16.52;3.30;;;;;;;5.47;100.00;101360.63;5053650;28;20094;-53
2023/01/30 06:56:27;;;;;;;13.57;2.50;;;;;;;5.42;100.00;101359.94;5053532;28;20049;-51
2023/01/30 06:58:55;;;;;;;18.52;3.25;;;;;;;5.41;100.00;101363.44;5054005;28;20075;-50
2023/01/30 07:01:25;;;;;;;15.88;2.72;;;;;;;5.35;100.00;101367.13;5054108;28;20575;-50
2023/01/30 07:03:55;;;;;;;13.18;2.53;;;;;;;5.32;100.00;101382.03;5053867;28;20057;-50
2023/01/30 07:06:23;;;;;;;18.38;2.85;;;;;;;5.34;100.00;101372.41;5053612;28;20052;-51
2023/01/30 07:08:51;;;;;;;13.25;2.67;;;;;;;5.26;100.00;101372.66;5053599;28;20049;-50
2023/01/30 07:11:20;;;;;;;11.75;2.20;;;;;;;5.21;100.00;101383.25;5053471;28;20133;-50
2023/01/30 07:13:48;;;;;;;19.10;2.63;;;;;;;5.28;100.00;101393.50;5053507;28;20051;-51
2023/01/30 07:16:16;;;;;;;19.70;3.10;;;;;;;5.18;100.00;101388.56;5053485;28;20051;-53
2023/01/30 07:18:45;;;;;;;20.70;2.47;;;;;;;5.13;100.00;101390.47;5053565;28;20073;-51
2023/01/30 07:21:13;;;;;;;16.63;2.50;;;;;;;5.10;100.00;101405.38;5050043;28;20080;-50
2023/01/30 07:23:42;;;;;;;17.90;3.10;;;;;;;5.02;100.00;101411.69;5049664;28;20511;-53
2023/01/30 07:26:10;;;;;;;16.08;2.40;;;;;;;4.97;100.00;101415.34;5053435;28;20488;-50
2023/01/30 07:28:38;;;;;;;15.45;2.33;;;;;;;4.96;100.00;101422.31;5052168;28;20114;-53
2023/01/30 07:31:06;;;;;;;20.23;2.83;;;;;;;4.90;100.00;101410.31;5048642;28;20577;-51
2023/01/30 07:33:35;;;;;;;19.23;3.15;;;;;;;4.94;100.00;101403.28;5051993;28;20087;-51
2023/01/30 07:36:05;;;;;;;16.38;3.33;;;;;;;4.89;100.00;101416.47;5053156;28;20080;-50
2023/01/30 07:38:33;;;;;;;20.77;3.67;;;;;;;4.93;100.00;101408.53;5053287;28;20048;-50
2023/01/30 07:41:01;;;;;;;19.55;2.88;;;;;;;4.85;100.00;101411.38;5052933;28;20139;-50
2023/01/30 07:43:29;;;;;;;20.42;3.05;;;;;;;4.83;100.00;101406.22;5052818;28;20041;-51
2023/01/30 07:45:57;;;;;;;13.07;2.80;;;;;;;4.90;100.00;101409.50;5052949;28;20059;-51
2023/01/30 07:48:25;;;;;;;18.88;3.25;;;;;;;4.92;100.00;101418.09;5052912;28;20119;-50
2023/01/30 07:50:56;;;;;;;12.38;2.75;;;;;;;4.87;100.00;101426.06;5052722;28;20052;-52
2023/01/30 07:53:26;;;;;;;22.02;2.92;;;;;;;4.90;100.00;101418.16;5052279;28;20048;-51
2023/01/30 07:55:54;;;;;;;17.83;2.80;;;;;;;4.87;100.00;101409.59;5051368;28;20057;-61
2023/01/30 07:58:22;;;;;;;21.48;2.90;;;;;;;4.89;100.00;101406.03;5049236;28;20037;-52
2023/01/30 08:00:50;;;;;;;17.40;3.10;;;;;;;4.81;100.00;101402.81;5051240;28;20045;-51
2023/01/30 08:03:18;;;;;;;15.23;2.58;;;;;;;4.81;100.00;101405.41;5048421;28;20049;-52
2023/01/30 08:05:47;;;;;;;18.88;3.50;;;;;;;4.78;100.00;101404.66;5049387;28;20087;-52
2023/01/30 08:08:15;;;;;;;19.50;3.35;;;;;;;4.78;100.00;101418.53;5052625;28;20527;-52
2023/01/30 08:10:45;;;;;;;16.83;3.08;;;;;;;4.80;100.00;101411.53;5052574;28;20555;-53
2023/01/30 08:13:13;;;;;;;17.38;2.63;;;;;;;4.79;100.00;101433.28;5052332;28;20507;-54
2023/01/30 08:15:41;;;;;;;23.50;3.20;;;;;;;4.84;100.00;101439.22;5052288;28;20484;-52
2023/01/30 08:18:09;;;;;;;18.70;3.80;;;;;;;4.86;100.00;101446.97;5052098;28;20504;-52
2023/01/30 08:20:37;;;;;;;16.55;2.90;;;;;;;4.84;100.00;101438.34;5052594;28;20103;-53
2023/01/30 08:23:06;;;;;;;19.63;3.60;;;;;;;4.85;100.00;101446.13;5067708;28;20096;-54
2023/01/30 08:25:34;;;;;;;17.42;3.08;;;;;;;4.99;100.00;101434.41;5052301;28;20126;-52
2023/01/30 08:28:04;;;;;;;19.55;3.15;;;;;;;5.01;100.00;101443.88;5052069;28;20084;-51
2023/01/30 08:30:33;;;;;;;12.88;2.42;;;;;;;5.03;100.00;101451.66;5051814;28;20064;-51
2023/01/30 08:33:01;;;;;;;21.08;4.30;;;;;;;5.18;100.00;101452.91;5048323;28;20045;-53
2023/01/30 08:35:29;;;;;;;20.63;2.53;;;;;;;5.20;100.00;101466.75;5049341;28;21054;-52
2023/01/30 08:37:59;;;;;;;24.10;4.50;;;;;;;5.23;100.00;101456.22;5052471;28;20083;-50
2023/01/30 08:40:27;;;;;;;18.77;3.08;;;;;;;5.39;100.00;101461.78;5052126;28;20123;-49
2023/01/30 08:42:55;;;;;;;17.05;2.83;;;;;;;5.52;100.00;101459.59;5052159;28;20445;-49
2023/01/30 08:45:25;;;;;;;22.50;3.10;;;;;;;5.55;100.00;101457.75;5060068;28;20056;-49
2023/01/30 08:47:53;;;;;;;17.92;3.03;;;;;;;5.63;100.00;101443.56;5061679;28;20124;-51
2023/01/30 08:50:21;;;;;;;15.75;2.95;;;;;;;5.62;100.00;101444.47;5058106;28;20101;-51
2023/01/30 08:52:49;;;;;;;18.23;2.60;;;;;;;5.62;100.00;101458.41;5061185;28;20041;-50
2023/01/30 08:55:17;;;;;;;14.45;2.25;;;;;;;5.62;100.00;101452.31;5065020;28;20063;-50
2023/01/30 08:57:46;;;;;;;15.13;2.38;;;;;;;5.75;100.00;101461.41;5068503;28;20119;-52
2023/01/30 09:00:15;;;;;;;14.35;2.38;;;;;;;5.80;100.00;101475.16;5057146;28;20040;-52
2023/01/30 09:02:46;;;;;;;19.13;2.90;;;;;;;5.80;100.00;101485.59;5061144;28;20479;-52
2023/01/30 09:05:14;;;;;;;19.70;3.78;;;;;;;5.84;100.00;101496.81;5058538;28;20407;-51
2023/01/30 09:07:42;;;;;;;18.77;4.00;;;;;;;5.89;100.00;101487.91;5051375;28;20072;-53
2023/01/30 09:10:11;;;;;;;20.38;2.55;;;;;;;5.97;100.00;101498.09;5063063;28;20052;-53
2023/01/30 09:12:41;;;;;;;20.35;3.15;;;;;;;6.05;100.00;101506.53;5061619;28;20037;-51
2023/01/30 09:15:10;;;;;;;18.58;2.95;;;;;;;6.03;100.00;101499.66;5060231;28;20048;-52
2023/01/30 09:17:39;;;;;;;17.00;2.88;;;;;;;5.97;100.00;101505.91;5058581;28;20041;-52
2023/01/30 09:20:10;;;;;;;18.60;2.67;;;;;;;6.04;100.00;101517.00;5072129;28;20456;-51
2023/01/30 09:22:38;;;;;;;19.00;2.90;;;;;;;5.93;100.00;101507.78;5063020;28;20037;-52
2023/01/30 09:25:09;;;;;;;27.27;3.45;;;;;;;6.01;100.00;101491.00;5048635;28;20045;-53
2023/01/30 09:27:37;;;;;;;16.08;2.70;;;;;;;5.98;100.00;101498.97;5055368;28;20145;-52
2023/01/30 09:30:07;;;;;;;14.90;2.88;;;;;;;6.03;100.00;101502.25;5051946;28;20466;-53
2023/01/30 09:32:36;;;;;;;15.88;2.53;;;;;;;6.01;100.00;101493.63;5056494;28;20045;-53
2023/01/30 09:35:05;;;;;;;19.17;2.80;;;;;;;6.00;100.00;101491.91;5071910;28;20500;-52
2023/01/30 09:37:34;;;;;;;16.58;2.63;;;;;;;6.08;100.00;101492.47;5057702;28;20053;-53
2023/01/30 09:40:03;;;;;;;21.10;2.97;;;;;;;6.10;100.00;101495.91;5071207;28;20048;-52
2023/01/30 09:42:49;;;;;;;18.10;2.70;;;;;;;6.05;100.00;101493.47;5071586;28;20040;-52
2023/01/30 09:45:45;;;;;;;13.98;2.90;;;;;;;6.13;100.00;101500.16;5058803;28;20387;-52
2023/01/30 09:48:24;;;;;;;14.10;2.72;;;;;;;6.07;100.00;101517.75;5048527;28;20049;-52
2023/01/30 09:51:24;;;;;;;17.98;2.72;;;;;;;6.03;100.00;101516.16;5067878;28;20053;-54
2023/01/30 09:54:19;;;;;;;17.45;2.40;;;;;;;6.03;100.00;101516.16;5061948;28;20114;-52
2023/01/30 09:56:51;;;;;;;22.52;3.10;;;;;;;6.05;100.00;101519.59;5064609;28;20056;-53
2023/01/30 09:59:25;;;;;;;17.33;3.85;;;;;;;6.06;100.00;101526.50;5054853;28;20056;-54
2023/01/30 10:02:01;;;;;;;14.15;2.35;;;;;;;6.08;100.00;101523.81;5062662;28;20055;-53
2023/01/30 10:04:33;;;;;;;20.95;2.92;;;;;;;6.16;100.00;101524.44;5062079;28;20048;-51
2023/01/30 10:07:15;;;;;;;18.27;2.25;;;;;;;6.17;100.00;101533.94;5063128;28;20058;-52
2023/01/30 10:09:53;;;;;;;11.88;3.08;;;;;;;6.18;100.00;101533.03;5075234;28;20060;-51
2023/01/30 10:12:39;;;;;;;19.13;2.80;;;;;;;6.31;100.00;101524.78;5074326;28;20128;-52
2023/01/30 10:15:21;;;;;;;15.00;2.22;;;;;;;6.29;100.00;101531.81;5058130;28;20056;-50
2023/01/30 10:18:04;;;;;;;;;;;;;;;6.37;100.00;101550.69;5055284;28;20558;-53
2023/01/30 10:20:45;;;;;;;19.27;2.50;;;;;;;6.42;100.00;101535.66;5053483;28;20329;-49
2023/01/30 10:23:31;;;;;;;16.67;2.60;;;;;;;6.48;100.00;101529.38;5058689;28;20103;-52
2023/01/30 10:26:08;;;;;;;19.30;2.90;;;;;;;6.48;100.00;101537.22;5054593;28;20110;-52
2023/01/30 10:28:40;;;;;;;17.20;3.30;;;;;;;6.48;100.00;101537.22;5054274;28;20048;-51
2023/01/30 10:31:14;;;;;;;14.38;2.60;;;;;;;6.50;100.00;101544.06;5058748;28;20049;-52
2023/01/30 10:33:49;;;;;;;19.87;3.50;;;;;;;6.47;100.00;101540.75;5060820;28;20051;-51
2023/01/30 10:36:25;;;;;;;13.32;2.67;;;;;;;6.42;100.00;101538.28;5069139;28;20457;-53
2023/01/30 10:38:59;;;;;;;19.58;3.60;;;;;;;6.41;100.00;101558.34;5071708;28;20507;-50
2023/01/30 10:41:34;;;;;;;14.88;2.90;;;;;;;6.47;100.00;101565.09;5074311;28;20040;-52
2023/01/30 10:44:05;;;;;;;16.17;2.78;;;;;;;6.44;100.00;101567.84;5054282;28;20049;-52
2023/01/30 10:46:46;;;;;;;20.73;3.80;;;;;;;6.42;100.00;101567.91;5054203;28;20045;-53
2023/01/30 10:49:19;;;;;;;17.55;2.92;;;;;;;6.40;100.00;101569.69;5070984;28;20045;-50
2023/01/30 10:51:57;;;;;;;22.98;3.67;;;;;;;6.43;100.00;101550.44;5072933;28;20541;-53
2023/01/30 10:54:33;;;;;;;21.65;3.13;;;;;;;6.47;100.00;101554.66;5073544;28;20515;-51
2023/01/30 10:57:15;;;;;;;17.10;3.63;;;;;;;6.58;100.00;101555.09;5073014;28;20052;-52
2023/01/30 10:59:53;;;;;;;15.43;2.93;;;;;;;6.59;100.00;101546.34;5070426;28;20052;-54
2023/01/30 11:02:25;;;;;;;19.48;3.30;;;;;;;6.60;100.00;101537.63;5069933;28;20458;-52
2023/01/30 11:04:59;;;;;;;16.13;2.55;;;;;;;6.68;100.00;101549.53;5067428;28;20488;-52
2023/01/30 11:07:30;;;;;;;18.33;3.15;;;;;;;6.69;100.00;101552.09;5067776;28;20063;-53
2023/01/30 11:09:59;;;;;;;21.65;3.72;;;;;;;6.66;100.00;101556.59;5059648;28;20041;-54
2023/01/30 11:12:29;;;;;;;15.38;2.85;;;;;;;6.65;100.00;101566.19;5053544;28;20051;-51
2023/01/30 11:14:59;;;;;;;15.18;2.80;;;;;;;6.67;100.00;101563.53;5049974;28;20532;-52
2023/01/30 11:17:33;;;;;;;17.52;3.00;;;;;;;6.69;100.00;101573.00;5049048;28;20076;-52
2023/01/30 11:20:08;;;;;;;14.80;2.72;;;;;;;6.73;100.00;101569.34;5053139;28;20048;-52
2023/01/30 11:22:46;;;;;;;18.52;3.15;;;;;;;6.83;100.00;101559.44;5053525;28;20044;-50
2023/01/30 11:25:16;;;;;;;17.42;3.83;;;;;;;6.94;100.00;101562.47;5053448;28;20043;-51
2023/01/30 11:27:53;;;;;;;16.63;2.70;;;;;;;6.99;100.00;101559.69;5053493;28;20466;-53
2023/01/30 11:30:27;;;;;;;19.38;3.08;;;;;;;7.06;100.00;101561.16;5053250;28;20053;-54
2023/01/30 11:33:07;;;;;;;18.38;2.95;;;;;;;7.06;100.00;101555.94;5053329;28;20052;-53
2023/01/30 11:35:41;;;;;;;16.42;2.85;;;;;;;7.18;100.00;101557.19;5052755;28;20055;-51
2023/01/30 11:38:21;;;;;;;20.90;3.10;;;;;;;7.31;100.00;101548.84;5049486;28;20044;-50
2023/01/30 11:40:49;;;;;;;17.42;3.67;;;;;;;7.40;100.00;101569.44;5050393;28;20499;-53